sensor_id;sensor_type;location;lat;lon;timestamp;temperature;humidity
65637;DHT22;52327;42.622;23.316;2023-06-05T00:00:05;13.55;84.19
65637;DHT22;52327;42.622;23.316;2023-06-05T00:02:32;13.61;84.04
65637;DHT22;52327;42.622;23.316;2023-06-05T00:04:58;13.54;84.23
65637;DHT22;52327;42.622;23.316;2023-06-05T00:07:29;13.42;84.57
65637;DHT22;52327;42.622;23.316;2023-06-05T00:09:54;13.34;84.74
65637;DHT22;52327;42.622;23.316;2023-06-05T00:12:22;13.32;84.98
65637;DHT22;52327;42.622;23.316;2023-06-05T00:14:48;13.28;85.22
65637;DHT22;52327;42.622;23.316;2023-06-05T00:17:14;13.24;85.67
65637;DHT22;52327;42.622;23.316;2023-06-05T00:19:39;13.25;85.68
65637;DHT22;52327;42.622;23.316;2023-06-05T00:22:05;13.27;85.61
65637;DHT22;52327;42.622;23.316;2023-06-05T00:24:36;13.29;85.60
65637;DHT22;52327;42.622;23.316;2023-06-05T00:27:10;13.34;85.25
65637;DHT22;52327;42.622;23.316;2023-06-05T00:29:36;13.29;85.15
65637;DHT22;52327;42.622;23.316;2023-06-05T00:32:01;13.27;85.19
65637;DHT22;52327;42.622;23.316;2023-06-05T00:34:32;13.25;85.34
65637;DHT22;52327;42.622;23.316;2023-06-05T00:36:58;13.28;85.32
65637;DHT22;52327;42.622;23.316;2023-06-05T00:39:24;13.24;85.33
65637;DHT22;52327;42.622;23.316;2023-06-05T00:41:49;13.19;85.57
65637;DHT22;52327;42.622;23.316;2023-06-05T00:44:17;13.24;85.69
65637;DHT22;52327;42.622;23.316;2023-06-05T00:46:46;13.29;85.98
65637;DHT22;52327;42.622;23.316;2023-06-05T00:49:13;13.34;85.89
65637;DHT22;52327;42.622;23.316;2023-06-05T00:51:41;13.52;85.62
65637;DHT22;52327;42.622;23.316;2023-06-05T00:54:07;13.76;84.52
65637;DHT22;52327;42.622;23.316;2023-06-05T00:56:33;13.76;84.80
65637;DHT22;52327;42.622;23.316;2023-06-05T00:59:01;13.69;85.10
65637;DHT22;52327;42.622;23.316;2023-06-05T01:01:27;13.69;85.24
65637;DHT22;52327;42.622;23.316;2023-06-05T01:03:57;13.78;85.01
65637;DHT22;52327;42.622;23.316;2023-06-05T01:06:25;13.76;84.60
65637;DHT22;52327;42.622;23.316;2023-06-05T01:08:52;13.75;84.64
65637;DHT22;52327;42.622;23.316;2023-06-05T01:14:22;13.54;85.11
65637;DHT22;52327;42.622;23.316;2023-06-05T01:16:51;13.48;85.49
65637;DHT22;52327;42.622;23.316;2023-06-05T01:19:22;13.55;85.16
65637;DHT22;52327;42.622;23.316;2023-06-05T01:21:55;13.54;85.14
65637;DHT22;52327;42.622;23.316;2023-06-05T01:24:23;13.45;85.57
65637;DHT22;52327;42.622;23.316;2023-06-05T01:35:10;13.27;86.54
65637;DHT22;52327;42.622;23.316;2023-06-05T01:37:43;13.35;86.26
65637;DHT22;52327;42.622;23.316;2023-06-05T01:40:14;13.55;85.51
65637;DHT22;52327;42.622;23.316;2023-06-05T01:42:41;13.38;85.60
65637;DHT22;52327;42.622;23.316;2023-06-05T01:45:09;13.27;85.99
65637;DHT22;52327;42.622;23.316;2023-06-05T01:47:40;13.24;86.11
65637;DHT22;52327;42.622;23.316;2023-06-05T01:50:10;13.32;85.98
65637;DHT22;52327;42.622;23.316;2023-06-05T01:52:39;13.49;85.07
65637;DHT22;52327;42.622;23.316;2023-06-05T01:55:19;13.41;85.36
65637;DHT22;52327;42.622;23.316;2023-06-05T01:57:49;13.41;85.38
65637;DHT22;52327;42.622;23.316;2023-06-05T02:00:17;13.39;85.50
65637;DHT22;52327;42.622;23.316;2023-06-05T02:02:44;13.25;85.44
65637;DHT22;52327;42.622;23.316;2023-06-05T02:05:12;13.17;85.76
65637;DHT22;52327;42.622;23.316;2023-06-05T02:07:44;13.06;86.56
65637;DHT22;52327;42.622;23.316;2023-06-05T02:10:12;13.08;86.57
65637;DHT22;52327;42.622;23.316;2023-06-05T02:12:41;13.10;86.95
65637;DHT22;52327;42.622;23.316;2023-06-05T02:15:10;13.22;86.69
65637;DHT22;52327;42.622;23.316;2023-06-05T02:17:39;13.14;87.09
65637;DHT22;52327;42.622;23.316;2023-06-05T02:20:13;13.37;86.09
65637;DHT22;52327;42.622;23.316;2023-06-05T02:22:50;13.25;85.96
65637;DHT22;52327;42.622;23.316;2023-06-05T02:25:23;13.12;86.42
65637;DHT22;52327;42.622;23.316;2023-06-05T02:27:54;13.17;86.58
65637;DHT22;52327;42.622;23.316;2023-06-05T02:30:20;13.24;86.25
65637;DHT22;52327;42.622;23.316;2023-06-05T02:32:46;13.28;85.97
65637;DHT22;52327;42.622;23.316;2023-06-05T02:35:14;13.24;85.96
65637;DHT22;52327;42.622;23.316;2023-06-05T02:37:41;13.24;85.82
65637;DHT22;52327;42.622;23.316;2023-06-05T02:40:13;13.18;85.83
65637;DHT22;52327;42.622;23.316;2023-06-05T02:42:39;13.11;85.86
65637;DHT22;52327;42.622;23.316;2023-06-05T02:45:09;13.01;85.95
65637;DHT22;52327;42.622;23.316;2023-06-05T02:47:37;12.98;85.97
65637;DHT22;52327;42.622;23.316;2023-06-05T02:50:04;12.90;85.83
65637;DHT22;52327;42.622;23.316;2023-06-05T02:52:32;12.81;86.11
65637;DHT22;52327;42.622;23.316;2023-06-05T02:55:02;12.83;86.38
65637;DHT22;52327;42.622;23.316;2023-06-05T02:57:31;12.88;86.09
65637;DHT22;52327;42.622;23.316;2023-06-05T03:00:00;12.91;86.00
65637;DHT22;52327;42.622;23.316;2023-06-05T03:02:35;12.93;85.67
65637;DHT22;52327;42.622;23.316;2023-06-05T03:05:05;12.88;85.60
65637;DHT22;52327;42.622;23.316;2023-06-05T03:07:37;12.75;85.72
65637;DHT22;52327;42.622;23.316;2023-06-05T03:10:11;12.67;86.22
65637;DHT22;52327;42.622;23.316;2023-06-05T03:12:40;12.63;86.56
65637;DHT22;52327;42.622;23.316;2023-06-05T03:15:06;12.60;86.62
65637;DHT22;52327;42.622;23.316;2023-06-05T03:17:32;12.53;87.28
65637;DHT22;52327;42.622;23.316;2023-06-05T03:19:58;12.50;87.80
65637;DHT22;52327;42.622;23.316;2023-06-05T03:22:27;12.60;87.55
65637;DHT22;52327;42.622;23.316;2023-06-05T03:24:52;12.57;87.29
65637;DHT22;52327;42.622;23.316;2023-06-05T03:27:19;12.52;87.71
65637;DHT22;52327;42.622;23.316;2023-06-05T03:29:47;12.55;88.11
65637;DHT22;52327;42.622;23.316;2023-06-05T03:32:16;12.76;87.91
65637;DHT22;52327;42.622;23.316;2023-06-05T03:34:42;12.87;87.52
65637;DHT22;52327;42.622;23.316;2023-06-05T03:37:08;13.17;86.72
65637;DHT22;52327;42.622;23.316;2023-06-05T03:39:34;13.31;86.01
65637;DHT22;52327;42.622;23.316;2023-06-05T03:41:59;13.41;85.81
65637;DHT22;52327;42.622;23.316;2023-06-05T03:44:29;13.32;87.53
65637;DHT22;52327;42.622;23.316;2023-06-05T03:46:55;13.35;87.83
65637;DHT22;52327;42.622;23.316;2023-06-05T03:49:20;13.48;87.51
65637;DHT22;52327;42.622;23.316;2023-06-05T03:51:55;13.58;87.21
65637;DHT22;52327;42.622;23.316;2023-06-05T03:54:27;13.90;86.23
65637;DHT22;52327;42.622;23.316;2023-06-05T03:57:00;13.87;86.51
65637;DHT22;52327;42.622;23.316;2023-06-05T03:59:27;13.92;86.49
65637;DHT22;52327;42.622;23.316;2023-06-05T04:01:55;13.96;86.31
65637;DHT22;52327;42.622;23.316;2023-06-05T04:04:21;14.23;85.54
65637;DHT22;52327;42.622;23.316;2023-06-05T04:06:48;14.23;85.56
65637;DHT22;52327;42.622;23.316;2023-06-05T04:09:22;14.37;85.26
65637;DHT22;52327;42.622;23.316;2023-06-05T04:11:53;14.38;85.17
65637;DHT22;52327;42.622;23.316;2023-06-05T04:14:20;14.59;84.59
65637;DHT22;52327;42.622;23.316;2023-06-05T04:16:45;14.71;84.51
65637;DHT22;52327;42.622;23.316;2023-06-05T04:19:12;14.78;84.31
65637;DHT22;52327;42.622;23.316;2023-06-05T04:21:38;14.88;84.32
65637;DHT22;52327;42.622;23.316;2023-06-05T04:24:05;15.01;84.00
65637;DHT22;52327;42.622;23.316;2023-06-05T04:26:34;15.08;83.76
65637;DHT22;52327;42.622;23.316;2023-06-05T04:29:00;15.09;83.71
65637;DHT22;52327;42.622;23.316;2023-06-05T04:31:29;15.25;83.74
65637;DHT22;52327;42.622;23.316;2023-06-05T04:33:55;15.21;83.77
65637;DHT22;52327;42.622;23.316;2023-06-05T04:36:22;15.26;83.65
65637;DHT22;52327;42.622;23.316;2023-06-05T04:38:47;15.36;83.62
65637;DHT22;52327;42.622;23.316;2023-06-05T04:41:13;15.32;83.35
65637;DHT22;52327;42.622;23.316;2023-06-05T04:43:39;15.46;82.87
65637;DHT22;52327;42.622;23.316;2023-06-05T04:46:05;15.47;82.75
65637;DHT22;52327;42.622;23.316;2023-06-05T04:48:30;15.54;82.59
65637;DHT22;52327;42.622;23.316;2023-06-05T04:50:56;15.57;82.55
65637;DHT22;52327;42.622;23.316;2023-06-05T04:53:23;15.67;82.50
65637;DHT22;52327;42.622;23.316;2023-06-05T04:55:49;15.79;82.19
65637;DHT22;52327;42.622;23.316;2023-06-05T04:58:18;15.80;82.27
65637;DHT22;52327;42.622;23.316;2023-06-05T05:00:44;16.00;81.37
65637;DHT22;52327;42.622;23.316;2023-06-05T05:03:10;16.08;80.82
65637;DHT22;52327;42.622;23.316;2023-06-05T05:05:39;16.05;81.24
65637;DHT22;52327;42.622;23.316;2023-06-05T05:08:05;16.18;80.51
65637;DHT22;52327;42.622;23.316;2023-06-05T05:10:31;16.17;81.07
65637;DHT22;52327;42.622;23.316;2023-06-05T05:12:57;16.20;81.12
65637;DHT22;52327;42.622;23.316;2023-06-05T05:15:26;16.38;80.37
65637;DHT22;52327;42.622;23.316;2023-06-05T05:17:52;16.40;80.41
65637;DHT22;52327;42.622;23.316;2023-06-05T05:20:17;16.65;79.69
65637;DHT22;52327;42.622;23.316;2023-06-05T05:22:44;16.80;79.57
65637;DHT22;52327;42.622;23.316;2023-06-05T05:25:10;16.99;79.36
65637;DHT22;52327;42.622;23.316;2023-06-05T05:27:36;17.24;78.64
65637;DHT22;52327;42.622;23.316;2023-06-05T05:30:01;17.38;78.11
65637;DHT22;52327;42.622;23.316;2023-06-05T05:32:28;17.64;77.48
65637;DHT22;52327;42.622;23.316;2023-06-05T05:34:53;17.79;77.27
65637;DHT22;52327;42.622;23.316;2023-06-05T05:37:18;17.99;76.93
65637;DHT22;52327;42.622;23.316;2023-06-05T05:39:44;18.35;76.14
65637;DHT22;52327;42.622;23.316;2023-06-05T05:42:10;18.33;75.23
65637;DHT22;52327;42.622;23.316;2023-06-05T05:44:38;18.52;75.22
65637;DHT22;52327;42.622;23.316;2023-06-05T05:47:07;18.56;75.17
65637;DHT22;52327;42.622;23.316;2023-06-05T05:49:32;18.56;75.00
65637;DHT22;52327;42.622;23.316;2023-06-05T05:51:58;18.76;73.55
65637;DHT22;52327;42.622;23.316;2023-06-05T05:54:23;18.77;74.10
65637;DHT22;52327;42.622;23.316;2023-06-05T05:56:52;18.84;74.01
65637;DHT22;52327;42.622;23.316;2023-06-05T05:59:18;18.96;73.68
65637;DHT22;52327;42.622;23.316;2023-06-05T06:01:44;19.00;73.14
65637;DHT22;52327;42.622;23.316;2023-06-05T06:04:11;19.07;73.04
65637;DHT22;52327;42.622;23.316;2023-06-05T06:06:37;19.11;73.28
65637;DHT22;52327;42.622;23.316;2023-06-05T06:09:05;19.21;72.38
65637;DHT22;52327;42.622;23.316;2023-06-05T06:11:33;19.21;73.24
65637;DHT22;52327;42.622;23.316;2023-06-05T06:13:59;19.44;72.20
65637;DHT22;52327;42.622;23.316;2023-06-05T06:16:24;19.73;71.78
65637;DHT22;52327;42.622;23.316;2023-06-05T06:18:50;19.94;71.14
65637;DHT22;52327;42.622;23.316;2023-06-05T06:21:16;20.08;70.50
65637;DHT22;52327;42.622;23.316;2023-06-05T06:23:41;20.24;69.97
65637;DHT22;52327;42.622;23.316;2023-06-05T06:26:07;20.41;69.83
65637;DHT22;52327;42.622;23.316;2023-06-05T06:28:33;20.64;69.48
65637;DHT22;52327;42.622;23.316;2023-06-05T06:30:58;20.82;68.85
65637;DHT22;52327;42.622;23.316;2023-06-05T06:33:24;20.91;68.83
65637;DHT22;52327;42.622;23.316;2023-06-05T06:35:49;20.92;68.56
65637;DHT22;52327;42.622;23.316;2023-06-05T06:38:15;21.05;68.29
65637;DHT22;52327;42.622;23.316;2023-06-05T06:40:42;21.04;68.12
65637;DHT22;52327;42.622;23.316;2023-06-05T06:43:07;21.09;68.34
65637;DHT22;52327;42.622;23.316;2023-06-05T06:45:33;21.16;67.58
65637;DHT22;52327;42.622;23.316;2023-06-05T06:47:58;21.42;66.74
65637;DHT22;52327;42.622;23.316;2023-06-05T06:50:23;21.28;66.40
65637;DHT22;52327;42.622;23.316;2023-06-05T06:52:49;21.35;67.10
65637;DHT22;52327;42.622;23.316;2023-06-05T06:55:15;21.63;66.55
65637;DHT22;52327;42.622;23.316;2023-06-05T06:57:41;22.00;65.66
65637;DHT22;52327;42.622;23.316;2023-06-05T07:00:07;22.37;64.22
65637;DHT22;52327;42.622;23.316;2023-06-05T07:02:35;22.43;63.75
65637;DHT22;52327;42.622;23.316;2023-06-05T07:05:01;22.54;63.28
65637;DHT22;52327;42.622;23.316;2023-06-05T07:07:27;22.56;62.90
65637;DHT22;52327;42.622;23.316;2023-06-05T07:09:53;22.59;63.10
65637;DHT22;52327;42.622;23.316;2023-06-05T07:12:19;22.66;61.92
65637;DHT22;52327;42.622;23.316;2023-06-05T07:14:45;22.59;62.89
65637;DHT22;52327;42.622;23.316;2023-06-05T07:17:11;22.78;61.97
65637;DHT22;52327;42.622;23.316;2023-06-05T07:19:37;22.81;60.91
65637;DHT22;52327;42.622;23.316;2023-06-05T07:22:03;22.82;61.82
65637;DHT22;52327;42.622;23.316;2023-06-05T07:24:29;22.89;60.65
65637;DHT22;52327;42.622;23.316;2023-06-05T07:26:57;22.72;61.34
65637;DHT22;52327;42.622;23.316;2023-06-05T07:29:23;22.88;60.07
65637;DHT22;52327;42.622;23.316;2023-06-05T07:31:50;22.58;60.84
65637;DHT22;52327;42.622;23.316;2023-06-05T07:34:17;22.59;60.86
65637;DHT22;52327;42.622;23.316;2023-06-05T07:36:44;22.73;60.65
65637;DHT22;52327;42.622;23.316;2023-06-05T07:39:10;22.78;59.94
65637;DHT22;52327;42.622;23.316;2023-06-05T07:41:37;22.85;60.21
65637;DHT22;52327;42.622;23.316;2023-06-05T07:44:03;23.19;59.90
65637;DHT22;52327;42.622;23.316;2023-06-05T07:46:28;23.47;59.35
65637;DHT22;52327;42.622;23.316;2023-06-05T07:48:54;23.75;57.62
65637;DHT22;52327;42.622;23.316;2023-06-05T07:51:19;24.01;56.91
65637;DHT22;52327;42.622;23.316;2023-06-05T07:53:45;24.26;56.67
65637;DHT22;52327;42.622;23.316;2023-06-05T07:56:11;24.59;54.67
65637;DHT22;52327;42.622;23.316;2023-06-05T07:58:42;24.55;55.04
65637;DHT22;52327;42.622;23.316;2023-06-05T08:01:08;24.59;55.33
65637;DHT22;52327;42.622;23.316;2023-06-05T08:03:33;24.48;55.47
65637;DHT22;52327;42.622;23.316;2023-06-05T08:05:59;24.35;54.40
65637;DHT22;52327;42.622;23.316;2023-06-05T08:08:24;23.93;56.23
65637;DHT22;52327;42.622;23.316;2023-06-05T08:10:50;23.81;55.75
65637;DHT22;52327;42.622;23.316;2023-06-05T08:13:16;23.68;56.32
65637;DHT22;52327;42.622;23.316;2023-06-05T08:15:42;23.53;56.28
65637;DHT22;52327;42.622;23.316;2023-06-05T08:18:08;23.36;56.34
65637;DHT22;52327;42.622;23.316;2023-06-05T08:20:33;23.37;55.83
65637;DHT22;52327;42.622;23.316;2023-06-05T08:22:59;23.40;57.69
65637;DHT22;52327;42.622;23.316;2023-06-05T08:25:25;23.33;58.23
65637;DHT22;52327;42.622;23.316;2023-06-05T08:27:52;23.39;58.90
65637;DHT22;52327;42.622;23.316;2023-06-05T08:30:18;23.43;57.94
65637;DHT22;52327;42.622;23.316;2023-06-05T08:32:44;23.26;58.05
65637;DHT22;52327;42.622;23.316;2023-06-05T08:35:09;22.84;58.89
65637;DHT22;52327;42.622;23.316;2023-06-05T08:37:38;22.84;58.56
65637;DHT22;52327;42.622;23.316;2023-06-05T08:40:04;22.85;57.83
65637;DHT22;52327;42.622;23.316;2023-06-05T08:42:38;22.65;59.53
65637;DHT22;52327;42.622;23.316;2023-06-05T08:45:08;22.59;60.05
65637;DHT22;52327;42.622;23.316;2023-06-05T08:47:36;22.52;60.37
65637;DHT22;52327;42.622;23.316;2023-06-05T08:50:04;22.40;60.36
65637;DHT22;52327;42.622;23.316;2023-06-05T08:52:33;22.22;60.24
65637;DHT22;52327;42.622;23.316;2023-06-05T08:55:00;21.97;61.30
65637;DHT22;52327;42.622;23.316;2023-06-05T08:57:27;21.87;61.67
65637;DHT22;52327;42.622;23.316;2023-06-05T08:59:53;21.74;62.60
65637;DHT22;52327;42.622;23.316;2023-06-05T09:02:19;21.76;62.40
65637;DHT22;52327;42.622;23.316;2023-06-05T09:04:44;21.65;63.05
65637;DHT22;52327;42.622;23.316;2023-06-05T09:07:11;21.38;63.18
65637;DHT22;52327;42.622;23.316;2023-06-05T09:09:37;21.18;63.56
65637;DHT22;52327;42.622;23.316;2023-06-05T09:12:07;21.04;64.47
65637;DHT22;52327;42.622;23.316;2023-06-05T09:14:33;21.01;64.99
65637;DHT22;52327;42.622;23.316;2023-06-05T09:17:02;20.73;67.03
65637;DHT22;52327;42.622;23.316;2023-06-05T09:19:38;20.60;69.25
65637;DHT22;52327;42.622;23.316;2023-06-05T09:22:07;20.55;69.36
65637;DHT22;52327;42.622;23.316;2023-06-05T09:24:33;20.58;69.77
65637;DHT22;52327;42.622;23.316;2023-06-05T09:27:03;20.60;70.12
65637;DHT22;52327;42.622;23.316;2023-06-05T09:29:39;20.73;70.13
65637;DHT22;52327;42.622;23.316;2023-06-05T09:32:10;20.77;69.63
65637;DHT22;52327;42.622;23.316;2023-06-05T09:34:40;20.84;70.08
65637;DHT22;52327;42.622;23.316;2023-06-05T09:37:10;20.84;70.14
65637;DHT22;52327;42.622;23.316;2023-06-05T09:39:37;21.02;69.08
65637;DHT22;52327;42.622;23.316;2023-06-05T09:42:03;21.05;69.30
65637;DHT22;52327;42.622;23.316;2023-06-05T09:44:30;21.02;69.16
65637;DHT22;52327;42.622;23.316;2023-06-05T09:47:02;21.06;68.98
65637;DHT22;52327;42.622;23.316;2023-06-05T09:52:12;20.70;69.05
65637;DHT22;52327;42.622;23.316;2023-06-05T09:54:39;20.67;68.76
65637;DHT22;52327;42.622;23.316;2023-06-05T09:57:08;20.75;67.91
65637;DHT22;52327;42.622;23.316;2023-06-05T09:59:55;20.68;68.05
65637;DHT22;52327;42.622;23.316;2023-06-05T10:02:24;20.91;68.33
65637;DHT22;52327;42.622;23.316;2023-06-05T10:05:04;21.38;67.01
65637;DHT22;52327;42.622;23.316;2023-06-05T10:07:35;21.59;67.05
65637;DHT22;52327;42.622;23.316;2023-06-05T10:10:02;21.74;67.07
65637;DHT22;52327;42.622;23.316;2023-06-05T10:12:30;21.89;67.25
65637;DHT22;52327;42.622;23.316;2023-06-05T10:14:56;21.89;67.37
65637;DHT22;52327;42.622;23.316;2023-06-05T10:17:25;21.84;67.85
65637;DHT22;52327;42.622;23.316;2023-06-05T10:19:51;21.56;71.97
65637;DHT22;52327;42.622;23.316;2023-06-05T10:22:18;21.38;72.33
65637;DHT22;52327;42.622;23.316;2023-06-05T10:24:46;21.39;72.62
65637;DHT22;52327;42.622;23.316;2023-06-05T10:27:40;21.56;71.44
65637;DHT22;52327;42.622;23.316;2023-06-05T10:35:53;21.63;73.28
65637;DHT22;52327;42.622;23.316;2023-06-05T10:38:27;21.84;71.84
65637;DHT22;52327;42.622;23.316;2023-06-05T10:40:54;22.00;72.29
65637;DHT22;52327;42.622;23.316;2023-06-05T10:43:35;22.33;70.00
65637;DHT22;52327;42.622;23.316;2023-06-05T10:46:02;22.56;69.03
65637;DHT22;52327;42.622;23.316;2023-06-05T10:51:45;23.34;64.38
65637;DHT22;52327;42.622;23.316;2023-06-05T10:57:04;23.56;63.99
65637;DHT22;52327;42.622;23.316;2023-06-05T10:59:36;23.63;64.16
65637;DHT22;52327;42.622;23.316;2023-06-05T11:17:47;23.81;61.37
65637;DHT22;52327;42.622;23.316;2023-06-05T11:23:11;24.99;57.60
65637;DHT22;52327;42.622;23.316;2023-06-05T11:25:37;25.44;56.81
65637;DHT22;52327;42.622;23.316;2023-06-05T11:28:05;26.01;55.83
65637;DHT22;52327;42.622;23.316;2023-06-05T11:30:38;26.54;53.42
65637;DHT22;52327;42.622;23.316;2023-06-05T11:33:12;26.98;52.41
65637;DHT22;52327;42.622;23.316;2023-06-05T11:35:39;27.58;51.00
65637;DHT22;52327;42.622;23.316;2023-06-05T11:40:44;28.06;47.67
65637;DHT22;52327;42.622;23.316;2023-06-05T11:43:11;29.06;46.12
65637;DHT22;52327;42.622;23.316;2023-06-05T11:45:38;31.37;41.24
65637;DHT22;52327;42.622;23.316;2023-06-05T11:48:12;32.38;39.12
65637;DHT22;52327;42.622;23.316;2023-06-05T11:50:38;31.80;40.40
65637;DHT22;52327;42.622;23.316;2023-06-05T11:53:09;30.35;42.10
65637;DHT22;52327;42.622;23.316;2023-06-05T11:55:36;29.14;44.43
65637;DHT22;52327;42.622;23.316;2023-06-05T11:58:29;28.06;46.68
65637;DHT22;52327;42.622;23.316;2023-06-05T12:01:04;27.45;47.82
65637;DHT22;52327;42.622;23.316;2023-06-05T12:03:30;27.22;48.26
65637;DHT22;52327;42.622;23.316;2023-06-05T12:05:57;26.91;48.49
65637;DHT22;52327;42.622;23.316;2023-06-05T12:08:27;26.49;49.12
65637;DHT22;52327;42.622;23.316;2023-06-05T12:10:54;26.16;49.72
65637;DHT22;52327;42.622;23.316;2023-06-05T12:13:22;25.96;49.92
65637;DHT22;52327;42.622;23.316;2023-06-05T12:16:00;25.93;49.57
65637;DHT22;52327;42.622;23.316;2023-06-05T12:18:32;25.75;51.21
65637;DHT22;52327;42.622;23.316;2023-06-05T12:20:59;25.67;50.84
65637;DHT22;52327;42.622;23.316;2023-06-05T12:23:25;25.54;51.09
65637;DHT22;52327;42.622;23.316;2023-06-05T12:26:03;25.60;49.42
65637;DHT22;52327;42.622;23.316;2023-06-05T12:28:30;25.51;50.16
65637;DHT22;52327;42.622;23.316;2023-06-05T12:30:57;25.50;50.79
65637;DHT22;52327;42.622;23.316;2023-06-05T12:33:23;25.72;49.22
65637;DHT22;52327;42.622;23.316;2023-06-05T12:38:28;25.41;51.64
65637;DHT22;52327;42.622;23.316;2023-06-05T12:40:53;25.40;51.57
65637;DHT22;52327;42.622;23.316;2023-06-05T12:43:19;25.33;51.28
65637;DHT22;52327;42.622;23.316;2023-06-05T12:45:45;25.38;50.69
65637;DHT22;52327;42.622;23.316;2023-06-05T12:48:10;25.23;51.51
65637;DHT22;52327;42.622;23.316;2023-06-05T12:50:38;25.35;51.48
65637;DHT22;52327;42.622;23.316;2023-06-05T12:53:04;25.54;50.98
65637;DHT22;52327;42.622;23.316;2023-06-05T12:55:29;25.55;50.89
65637;DHT22;52327;42.622;23.316;2023-06-05T12:57:56;25.52;51.05
65637;DHT22;52327;42.622;23.316;2023-06-05T13:00:21;25.67;49.27
65637;DHT22;52327;42.622;23.316;2023-06-05T13:02:47;25.65;50.20
65637;DHT22;52327;42.622;23.316;2023-06-05T13:05:14;25.72;49.52
65637;DHT22;52327;42.622;23.316;2023-06-05T13:07:40;25.74;49.63
65637;DHT22;52327;42.622;23.316;2023-06-05T13:10:06;25.61;50.59
65637;DHT22;52327;42.622;23.316;2023-06-05T13:12:32;25.57;50.47
65637;DHT22;52327;42.622;23.316;2023-06-05T13:14:57;25.37;50.74
65637;DHT22;52327;42.622;23.316;2023-06-05T13:17:23;25.38;51.14
65637;DHT22;52327;42.622;23.316;2023-06-05T13:19:49;25.35;50.99
65637;DHT22;52327;42.622;23.316;2023-06-05T13:22:15;25.31;51.39
65637;DHT22;52327;42.622;23.316;2023-06-05T13:24:40;25.28;51.42
65637;DHT22;52327;42.622;23.316;2023-06-05T13:27:06;25.30;51.77
65637;DHT22;52327;42.622;23.316;2023-06-05T13:29:31;25.37;50.30
65637;DHT22;52327;42.622;23.316;2023-06-05T13:31:57;25.30;50.97
65637;DHT22;52327;42.622;23.316;2023-06-05T13:34:23;25.24;52.00
65637;DHT22;52327;42.622;23.316;2023-06-05T13:36:49;25.24;52.00
65637;DHT22;52327;42.622;23.316;2023-06-05T13:39:14;25.21;52.47
65637;DHT22;52327;42.622;23.316;2023-06-05T13:41:40;25.11;52.35
65637;DHT22;52327;42.622;23.316;2023-06-05T13:44:05;25.09;51.88
65637;DHT22;52327;42.622;23.316;2023-06-05T13:46:31;25.06;52.23
65637;DHT22;52327;42.622;23.316;2023-06-05T13:48:56;25.11;51.88
65637;DHT22;52327;42.622;23.316;2023-06-05T13:51:25;25.02;53.55
65637;DHT22;52327;42.622;23.316;2023-06-05T13:53:50;24.99;53.39
65637;DHT22;52327;42.622;23.316;2023-06-05T13:56:16;24.90;53.48
65637;DHT22;52327;42.622;23.316;2023-06-05T13:58:44;24.82;54.25
65637;DHT22;52327;42.622;23.316;2023-06-05T14:01:10;24.87;53.99
65637;DHT22;52327;42.622;23.316;2023-06-05T14:03:35;24.87;54.35
65637;DHT22;52327;42.622;23.316;2023-06-05T14:06:01;24.68;55.10
65637;DHT22;52327;42.622;23.316;2023-06-05T14:08:26;24.58;55.21
65637;DHT22;52327;42.622;23.316;2023-06-05T14:10:52;24.56;53.65
65637;DHT22;52327;42.622;23.316;2023-06-05T14:13:18;24.48;54.07
65637;DHT22;52327;42.622;23.316;2023-06-05T14:15:43;24.31;55.04
65637;DHT22;52327;42.622;23.316;2023-06-05T14:18:09;24.17;56.01
65637;DHT22;52327;42.622;23.316;2023-06-05T14:20:35;24.05;55.97
65637;DHT22;52327;42.622;23.316;2023-06-05T14:23:01;24.00;55.99
65637;DHT22;52327;42.622;23.316;2023-06-05T14:25:27;23.93;56.15
65637;DHT22;52327;42.622;23.316;2023-06-05T14:27:56;23.89;55.98
65637;DHT22;52327;42.622;23.316;2023-06-05T14:30:22;23.93;56.57
65637;DHT22;52327;42.622;23.316;2023-06-05T14:32:48;23.88;57.30
65637;DHT22;52327;42.622;23.316;2023-06-05T14:35:14;23.80;57.34
65637;DHT22;52327;42.622;23.316;2023-06-05T14:37:41;23.74;57.75
65637;DHT22;52327;42.622;23.316;2023-06-05T14:40:07;23.68;58.00
65637;DHT22;52327;42.622;23.316;2023-06-05T14:42:33;23.66;58.62
65637;DHT22;52327;42.622;23.316;2023-06-05T14:44:59;23.71;58.44
65637;DHT22;52327;42.622;23.316;2023-06-05T14:47:24;23.78;58.10
65637;DHT22;52327;42.622;23.316;2023-06-05T14:49:50;23.78;58.39
65637;DHT22;52327;42.622;23.316;2023-06-05T14:52:15;23.71;59.09
65637;DHT22;52327;42.622;23.316;2023-06-05T14:54:41;23.71;58.14
65637;DHT22;52327;42.622;23.316;2023-06-05T14:57:06;23.78;57.21
65637;DHT22;52327;42.622;23.316;2023-06-05T14:59:32;23.74;57.03
65637;DHT22;52327;42.622;23.316;2023-06-05T15:01:58;23.78;55.80
65637;DHT22;52327;42.622;23.316;2023-06-05T15:04:25;23.67;56.62
65637;DHT22;52327;42.622;23.316;2023-06-05T15:06:51;23.71;56.51
65637;DHT22;52327;42.622;23.316;2023-06-05T15:09:19;23.64;56.75
65637;DHT22;52327;42.622;23.316;2023-06-05T15:11:44;23.60;57.17
65637;DHT22;52327;42.622;23.316;2023-06-05T15:14:09;23.53;57.74
65637;DHT22;52327;42.622;23.316;2023-06-05T15:16:35;23.58;57.46
65637;DHT22;52327;42.622;23.316;2023-06-05T15:19:01;23.60;57.96
65637;DHT22;52327;42.622;23.316;2023-06-05T15:21:26;23.80;56.88
65637;DHT22;52327;42.622;23.316;2023-06-05T15:23:51;23.97;56.08
65637;DHT22;52327;42.622;23.316;2023-06-05T15:26:17;24.02;55.90
65637;DHT22;52327;42.622;23.316;2023-06-05T15:28:42;24.02;56.58
65637;DHT22;52327;42.622;23.316;2023-06-05T15:31:08;24.00;57.04
65637;DHT22;52327;42.622;23.316;2023-06-05T15:33:33;24.21;56.21
65637;DHT22;52327;42.622;23.316;2023-06-05T15:35:59;24.29;56.53
65637;DHT22;52327;42.622;23.316;2023-06-05T15:38:24;24.45;56.19
65637;DHT22;52327;42.622;23.316;2023-06-05T15:40:50;24.65;55.06
65637;DHT22;52327;42.622;23.316;2023-06-05T15:43:15;24.77;54.26
65637;DHT22;52327;42.622;23.316;2023-06-05T15:45:41;24.65;55.66
65637;DHT22;52327;42.622;23.316;2023-06-05T15:48:07;24.73;54.66
65637;DHT22;52327;42.622;23.316;2023-06-05T15:50:33;24.66;54.42
65637;DHT22;52327;42.622;23.316;2023-06-05T15:52:59;24.39;55.51
65637;DHT22;52327;42.622;23.316;2023-06-05T15:55:25;24.18;56.42
65637;DHT22;52327;42.622;23.316;2023-06-05T15:57:51;24.18;55.87
65637;DHT22;52327;42.622;23.316;2023-06-05T16:00:18;24.01;55.96
65637;DHT22;52327;42.622;23.316;2023-06-05T16:02:45;23.88;55.96
65637;DHT22;52327;42.622;23.316;2023-06-05T16:05:11;23.73;56.15